createdAt,value
2016-10-13T00:00:08.923Z,5.42
2016-10-13T00:01:08.923Z,5.41
2016-10-13T00:02:08.913Z,5.42
2016-10-13T00:03:08.893Z,5.41
2016-10-13T00:04:08.882Z,5.44
2016-10-13T00:05:08.867Z,5.36
2016-10-13T00:06:08.846Z,5.44
2016-10-13T00:07:08.837Z,5.48
2016-10-13T00:08:09.141Z,5.33
2016-10-13T00:09:08.813Z,5.44
2016-10-13T00:10:08.815Z,5.41
2016-10-13T00:11:08.805Z,5.34
2016-10-13T00:12:08.980Z,5.36
2016-10-13T00:13:08.759Z,5.45
2016-10-13T00:14:08.754Z,5.36
2016-10-13T00:15:08.736Z,5.37
2016-10-13T00:16:09.039Z,5.34
2016-10-13T00:17:08.715Z,5.39
2016-10-13T00:18:08.699Z,5.42
2016-10-13T00:19:08.734Z,5.44
2016-10-13T00:20:08.669Z,5.44
2016-10-13T00:21:08.655Z,5.44
2016-10-13T00:22:08.848Z,5.48
2016-10-13T00:23:08.626Z,5.39
2016-10-13T00:24:08.626Z,5.45
2016-10-13T00:25:08.607Z,5.45
2016-10-13T00:26:08.592Z,5.48
2016-10-13T00:27:08.584Z,5.44
2016-10-13T00:28:08.564Z,5.36
2016-10-13T00:29:08.568Z,5.42
2016-10-13T00:30:08.545Z,5.39
2016-10-13T00:31:08.525Z,5.41
2016-10-13T00:32:08.520Z,5.41
2016-10-13T00:33:08.503Z,5.42
2016-10-13T00:34:08.493Z,5.42
2016-10-13T00:35:08.493Z,5.44
2016-10-13T00:36:08.466Z,5.41
2016-10-13T00:37:08.452Z,5.44
2016-10-13T00:38:08.455Z,5.39
2016-10-13T00:39:08.427Z,5.42
2016-10-13T00:40:08.425Z,5.39
2016-10-13T00:41:08.407Z,5.49
2016-10-13T00:42:08.404Z,5.44
2016-10-13T00:43:08.383Z,5.45
2016-10-13T00:44:08.361Z,5.45
2016-10-13T00:45:08.355Z,5.57
2016-10-13T00:46:08.339Z,5.59
2016-10-13T00:47:08.330Z,5.49
2016-10-13T00:48:08.317Z,5.54
2016-10-13T00:49:08.298Z,5.54
2016-10-13T00:50:08.293Z,5.55
2016-10-13T00:51:08.290Z,5.49
2016-10-13T00:52:08.259Z,5.48
2016-10-13T00:53:08.259Z,5.49
2016-10-13T00:54:08.254Z,5.46
2016-10-13T00:55:08.225Z,5.49
2016-10-13T00:56:08.206Z,5.57
2016-10-13T00:57:08.196Z,5.46
2016-10-13T00:58:08.180Z,5.46
2016-10-13T00:59:08.171Z,5.51
2016-10-13T01:00:08.168Z,5.59
2016-10-13T01:01:08.142Z,5.51
2016-10-13T01:02:08.139Z,5.48
2016-10-13T01:03:08.115Z,5.57
2016-10-13T01:04:08.108Z,5.55
2016-10-13T01:05:08.365Z,5.48
2016-10-13T01:06:08.083Z,5.48
2016-10-13T01:07:08.070Z,5.6
2016-10-13T01:08:08.055Z,5.51
2016-10-13T01:09:08.051Z,5.44
2016-10-13T01:10:08.032Z,5.52
2016-10-13T01:11:08.012Z,5.46
2016-10-13T01:12:07.998Z,5.6
2016-10-13T01:13:07.991Z,5.51
2016-10-13T01:14:07.997Z,5.57
2016-10-13T01:15:07.966Z,5.54
2016-10-13T01:16:07.981Z,5.6
2016-10-13T01:17:07.982Z,5.63
2016-10-13T01:18:07.983Z,5.64
2016-10-13T01:19:07.991Z,5.6
2016-10-13T01:20:07.999Z,5.67
2016-10-13T01:21:08.013Z,5.57
2016-10-13T01:22:07.966Z,5.67
2016-10-13T01:23:07.965Z,5.75
2016-10-13T01:24:07.926Z,5.66
2016-10-13T01:25:07.936Z,5.7
2016-10-13T01:26:07.885Z,5.66
2016-10-13T01:27:07.884Z,5.72
2016-10-13T01:28:07.892Z,5.67
2016-10-13T01:29:07.901Z,5.73
2016-10-13T01:30:07.916Z,5.66
2016-10-13T01:31:07.920Z,5.62
2016-10-13T01:32:07.932Z,5.67
2016-10-13T01:33:07.869Z,5.62
2016-10-13T01:34:07.799Z,5.55
2016-10-13T01:35:07.848Z,5.62
2016-10-13T01:36:07.874Z,5.6
2016-10-13T01:37:07.871Z,5.55
2016-10-13T01:38:07.912Z,5.62
2016-10-13T01:39:07.733Z,5.63
2016-10-13T01:40:07.890Z,5.57
2016-10-13T01:41:07.755Z,5.57
2016-10-13T01:42:07.751Z,5.57
2016-10-13T01:43:07.757Z,5.67
2016-10-13T01:44:07.767Z,5.57
2016-10-13T01:45:07.778Z,5.64
2016-10-13T01:46:07.785Z,5.66
2016-10-13T01:47:07.785Z,5.55
2016-10-13T01:48:07.694Z,5.62
2016-10-13T01:49:07.726Z,5.63
2016-10-13T01:50:07.716Z,5.62
2016-10-13T01:51:07.709Z,5.62
2016-10-13T01:52:07.719Z,5.62
2016-10-13T01:53:07.689Z,5.64
2016-10-13T01:54:07.540Z,5.49
2016-10-13T01:55:07.656Z,5.62
2016-10-13T01:56:07.657Z,5.64
2016-10-13T01:57:07.544Z,5.52
2016-10-13T01:58:07.523Z,5.66
2016-10-13T01:59:07.503Z,5.57
2016-10-13T02:00:07.492Z,5.66
2016-10-13T02:01:07.490Z,5.59
2016-10-13T02:02:07.504Z,5.63
2016-10-13T02:03:07.356Z,5.6
2016-10-13T02:04:07.348Z,5.63
2016-10-13T02:05:07.487Z,5.62
2016-10-13T02:06:07.317Z,5.62
2016-10-13T02:07:07.323Z,5.57
2016-10-13T02:08:07.296Z,5.66
2016-10-13T02:09:07.283Z,5.6
2016-10-13T02:10:07.376Z,5.63
2016-10-13T02:11:07.255Z,5.6
2016-10-13T02:12:07.245Z,5.6
2016-10-13T02:13:07.235Z,5.7
2016-10-13T02:14:07.221Z,5.62
2016-10-13T02:15:07.217Z,5.64
2016-10-13T02:16:07.197Z,5.59
2016-10-13T02:17:07.186Z,5.6
2016-10-13T02:18:07.169Z,5.62
2016-10-13T02:19:07.158Z,5.55
2016-10-13T02:20:07.143Z,5.62
2016-10-13T02:21:07.134Z,5.6
2016-10-13T02:22:07.121Z,5.6
2016-10-13T02:23:07.107Z,5.62
2016-10-13T02:24:07.095Z,5.59
2016-10-13T02:25:07.135Z,5.63
2016-10-13T02:26:07.075Z,5.63
2016-10-13T02:27:07.062Z,5.62
2016-10-13T02:28:07.097Z,5.63
2016-10-13T02:29:07.033Z,5.63
2016-10-13T02:30:07.025Z,5.63
2016-10-13T02:31:07.010Z,5.62
2016-10-13T02:32:06.993Z,5.59
2016-10-13T02:33:06.995Z,5.62
2016-10-13T02:34:06.967Z,5.6
2016-10-13T02:35:07.028Z,5.64
2016-10-13T02:36:06.948Z,5.63
2016-10-13T02:37:07.022Z,5.66
2016-10-13T02:38:06.933Z,5.63
2016-10-13T02:39:06.902Z,5.63
2016-10-13T02:40:06.900Z,5.62
2016-10-13T02:41:06.880Z,5.59
2016-10-13T02:42:06.871Z,5.62
2016-10-13T02:43:06.855Z,5.64
2016-10-13T02:44:06.843Z,5.6
2016-10-13T02:45:06.824Z,5.6
2016-10-13T02:46:06.816Z,5.59
2016-10-13T02:47:06.810Z,5.62
2016-10-13T02:48:06.819Z,5.63
2016-10-13T02:49:06.808Z,5.64
2016-10-13T02:50:06.770Z,5.64
2016-10-13T02:51:06.755Z,5.67
2016-10-13T02:52:06.750Z,5.6
2016-10-13T02:53:06.726Z,5.73
2016-10-13T02:54:06.732Z,5.69
2016-10-13T02:55:06.708Z,5.67
2016-10-13T02:56:06.690Z,5.66
2016-10-13T02:57:06.684Z,5.7
2016-10-13T02:58:06.662Z,5.73
2016-10-13T02:59:06.664Z,5.7
2016-10-13T03:00:06.634Z,5.75
2016-10-13T03:01:06.629Z,5.75
2016-10-13T03:02:06.614Z,5.7
2016-10-13T03:03:06.599Z,5.73
2016-10-13T03:04:06.594Z,5.73
2016-10-13T03:05:06.581Z,5.73
2016-10-13T03:06:06.564Z,5.72
2016-10-13T03:07:06.547Z,5.78
2016-10-13T03:08:06.536Z,5.7
2016-10-13T03:09:06.530Z,5.7
2016-10-13T03:10:06.519Z,5.77
2016-10-13T03:11:06.508Z,5.75
2016-10-13T03:12:06.487Z,5.73
2016-10-13T03:13:06.482Z,5.73
2016-10-13T03:14:06.463Z,5.7
2016-10-13T03:15:06.505Z,5.77
2016-10-13T03:16:06.445Z,5.78
2016-10-13T03:17:06.424Z,5.78
2016-10-13T03:18:06.420Z,5.72
2016-10-13T03:19:06.398Z,5.77
2016-10-13T03:20:06.404Z,5.72
2016-10-13T03:21:06.375Z,5.72
2016-10-13T03:22:06.367Z,5.78
2016-10-13T03:23:06.352Z,5.82
2016-10-13T03:24:06.338Z,5.78
2016-10-13T03:25:06.376Z,5.82
2016-10-13T03:26:06.329Z,5.75
2016-10-13T03:27:06.311Z,5.8
2016-10-13T03:28:06.285Z,5.82
2016-10-13T03:29:06.276Z,5.81
2016-10-13T03:30:06.278Z,5.8
2016-10-13T03:31:06.251Z,5.8
2016-10-13T03:32:06.236Z,5.75
2016-10-13T03:33:06.226Z,5.82
2016-10-13T03:34:06.528Z,5.82
2016-10-13T03:35:06.202Z,5.78
2016-10-13T03:36:06.198Z,5.8
2016-10-13T03:37:06.171Z,5.84
2016-10-13T03:38:06.159Z,5.77
2016-10-13T03:39:06.158Z,5.88
2016-10-13T03:40:06.135Z,5.78
2016-10-13T03:41:06.134Z,5.82
2016-10-13T03:42:06.114Z,5.85
2016-10-13T03:43:06.107Z,5.84
2016-10-13T03:44:06.092Z,5.8
2016-10-13T03:45:06.072Z,5.78
2016-10-13T03:46:06.073Z,5.82
2016-10-13T03:47:06.049Z,5.81
2016-10-13T03:48:06.043Z,5.73
2016-10-13T03:49:06.029Z,5.75
2016-10-13T03:50:06.023Z,5.77
2016-10-13T03:51:06.005Z,5.75
2016-10-13T03:52:05.986Z,5.75
2016-10-13T03:53:05.978Z,5.82
2016-10-13T03:54:05.982Z,5.81
2016-10-13T03:55:05.952Z,5.8
2016-10-13T03:56:05.938Z,5.8
2016-10-13T03:57:05.950Z,5.87
2016-10-13T03:58:05.907Z,5.73
2016-10-13T03:59:05.906Z,5.75
2016-10-13T04:00:05.903Z,5.8
2016-10-13T04:01:05.874Z,5.82
2016-10-13T04:02:05.867Z,5.73
2016-10-13T04:03:05.847Z,5.73
2016-10-13T04:04:06.157Z,5.81
2016-10-13T04:05:05.825Z,5.77
2016-10-13T04:06:06.154Z,5.72
2016-10-13T04:07:05.798Z,5.78
2016-10-13T04:08:05.793Z,5.81
2016-10-13T04:09:05.775Z,5.82
2016-10-13T04:10:05.762Z,5.81
2016-10-13T04:11:05.756Z,5.85
2016-10-13T04:12:05.736Z,5.88
2016-10-13T04:13:06.044Z,5.81
2016-10-13T04:14:05.707Z,5.82
2016-10-13T04:15:05.700Z,5.81
2016-10-13T04:16:05.690Z,5.78
2016-10-13T04:17:05.677Z,5.78
2016-10-13T04:18:05.667Z,5.78
2016-10-13T04:19:05.653Z,5.81
2016-10-13T04:20:05.641Z,5.73
2016-10-13T04:21:05.619Z,5.78
2016-10-13T04:22:05.930Z,5.75
2016-10-13T04:23:05.599Z,5.82
2016-10-13T04:24:05.586Z,5.87
2016-10-13T04:25:05.576Z,5.81
2016-10-13T04:26:05.610Z,5.78
2016-10-13T04:27:05.548Z,5.77
2016-10-13T04:28:05.552Z,5.73
2016-10-13T04:29:05.519Z,5.81
2016-10-13T04:30:05.513Z,5.84
2016-10-13T04:31:05.511Z,5.85
2016-10-13T04:32:05.488Z,5.73
2016-10-13T04:33:05.477Z,5.81
2016-10-13T04:34:05.470Z,5.77
2016-10-13T04:35:05.783Z,5.81
2016-10-13T04:36:05.492Z,5.85
2016-10-13T04:37:05.419Z,5.72
2016-10-13T04:38:05.417Z,5.88
2016-10-13T04:39:05.411Z,5.88
2016-10-13T04:40:05.387Z,5.88
2016-10-13T04:41:05.371Z,5.88
2016-10-13T04:42:05.360Z,5.85
2016-10-13T04:43:05.357Z,5.84
2016-10-13T04:44:05.339Z,5.89
2016-10-13T04:45:05.651Z,5.89
2016-10-13T04:46:05.309Z,5.89
2016-10-13T04:47:05.311Z,5.91
2016-10-13T04:48:05.287Z,5.95
2016-10-13T04:49:05.276Z,5.87
2016-10-13T04:50:05.375Z,5.87
2016-10-13T04:51:05.568Z,5.92
2016-10-13T04:52:05.246Z,5.87
2016-10-13T04:53:05.236Z,5.92
2016-10-13T04:54:05.238Z,5.85
2016-10-13T04:55:05.206Z,5.85
2016-10-13T04:56:05.186Z,5.92
2016-10-13T04:57:05.521Z,5.91
2016-10-13T04:58:05.162Z,5.85
2016-10-13T04:59:05.147Z,5.82
2016-10-13T05:00:05.141Z,5.81
2016-10-13T05:01:05.183Z,5.91
2016-10-13T05:02:05.112Z,5.81
2016-10-13T05:03:05.113Z,5.88
2016-10-13T05:04:05.095Z,5.88
2016-10-13T05:05:05.073Z,5.87
2016-10-13T05:06:05.067Z,5.78
2016-10-13T05:07:05.050Z,5.8
2016-10-13T05:08:05.055Z,5.81
2016-10-13T05:09:05.030Z,5.78
2016-10-13T05:10:05.019Z,5.78
2016-10-13T05:11:05.003Z,5.8
2016-10-13T05:12:04.989Z,5.81
2016-10-13T05:13:04.991Z,5.77
2016-10-13T05:14:04.969Z,5.84
2016-10-13T05:15:04.968Z,5.87
2016-10-13T05:16:04.943Z,5.82
2016-10-13T05:17:04.931Z,5.78
2016-10-13T05:18:04.919Z,5.72
2016-10-13T05:19:04.905Z,5.78
2016-10-13T05:20:04.901Z,5.73
2016-10-13T05:21:04.918Z,5.73
2016-10-13T05:22:04.871Z,5.78
2016-10-13T05:23:04.855Z,5.7
2016-10-13T05:24:04.842Z,5.81
2016-10-13T05:25:04.840Z,5.73
2016-10-13T05:26:04.820Z,5.77
2016-10-13T05:27:04.808Z,5.73
2016-10-13T05:28:05.002Z,5.69
2016-10-13T05:29:04.806Z,5.78
2016-10-13T05:30:04.799Z,5.7
2016-10-13T05:31:04.759Z,5.73
2016-10-13T05:32:04.743Z,5.77
2016-10-13T05:33:04.749Z,5.75
2016-10-13T05:34:04.724Z,5.67
2016-10-13T05:35:04.704Z,5.66
2016-10-13T05:36:04.700Z,5.67
2016-10-13T05:37:04.681Z,5.69
2016-10-13T05:38:04.669Z,5.62
2016-10-13T05:39:04.658Z,5.64
2016-10-13T05:40:04.654Z,5.62
2016-10-13T05:41:04.634Z,5.66
2016-10-13T05:42:04.617Z,5.69
2016-10-13T05:43:04.612Z,5.69
2016-10-13T05:44:04.594Z,5.7
2016-10-13T05:45:04.587Z,5.7
2016-10-13T05:46:04.574Z,5.73
2016-10-13T05:47:04.554Z,5.69
2016-10-13T05:48:04.545Z,5.75
2016-10-13T05:49:04.535Z,5.75
2016-10-13T05:50:04.528Z,5.8
2016-10-13T05:51:04.518Z,5.67
2016-10-13T05:52:04.618Z,5.7
2016-10-13T05:53:04.489Z,5.77
2016-10-13T05:54:04.498Z,5.72
2016-10-13T05:55:04.453Z,5.73
2016-10-13T05:56:04.446Z,5.81
2016-10-13T05:57:04.433Z,5.75
2016-10-13T05:58:04.415Z,5.77
2016-10-13T05:59:04.413Z,5.75
2016-10-13T06:00:04.400Z,5.84
2016-10-13T06:01:04.383Z,5.84
2016-10-13T06:02:04.381Z,5.82
2016-10-13T06:03:04.353Z,5.87
2016-10-13T06:04:04.557Z,5.8
2016-10-13T06:05:04.339Z,5.81
2016-10-13T06:06:04.321Z,5.84
2016-10-13T06:07:04.643Z,5.82
2016-10-13T06:08:04.298Z,5.89
2016-10-13T06:09:04.284Z,5.82
2016-10-13T06:10:04.285Z,5.84
2016-10-13T06:11:04.256Z,5.92
2016-10-13T06:12:04.253Z,6.02
2016-10-13T06:13:04.232Z,5.92
2016-10-13T06:14:04.223Z,5.92
2016-10-13T06:15:04.205Z,5.98
2016-10-13T06:16:04.200Z,5.92
2016-10-13T06:17:04.192Z,6
2016-10-13T06:18:04.175Z,6
2016-10-13T06:19:04.164Z,6.06
2016-10-13T06:20:04.157Z,6.02
2016-10-13T06:21:04.138Z,6.13
2016-10-13T06:22:04.125Z,6.05
2016-10-13T06:23:04.121Z,6.26
2016-10-13T06:24:04.102Z,6.2
2016-10-13T06:25:04.105Z,6.2
2016-10-13T06:26:04.099Z,6.18
2016-10-13T06:27:04.059Z,6.31
2016-10-13T06:28:04.058Z,6.26
2016-10-13T06:29:04.046Z,6.28
2016-10-13T06:30:04.027Z,6.26
2016-10-13T06:31:04.023Z,6.28
2016-10-13T06:32:03.995Z,6.21
2016-10-13T06:33:04.006Z,6.2
2016-10-13T06:34:03.980Z,6.2
2016-10-13T06:35:03.995Z,6.2
2016-10-13T06:36:04.154Z,6.17
2016-10-13T06:37:03.937Z,6.14
2016-10-13T06:38:03.927Z,6.18
2016-10-13T06:39:03.915Z,6.29
2016-10-13T06:40:03.906Z,6.39
2016-10-13T06:41:03.891Z,6.39
2016-10-13T06:42:03.876Z,6.4
2016-10-13T06:43:03.863Z,6.57
2016-10-13T06:44:03.861Z,6.64
2016-10-13T06:45:03.853Z,6.72
2016-10-13T06:46:03.852Z,6.83
2016-10-13T06:47:03.828Z,7.08
2016-10-13T06:48:03.805Z,7.15
2016-10-13T06:49:03.797Z,7.19
2016-10-13T06:50:03.788Z,7.15
2016-10-13T06:51:03.768Z,7.19
2016-10-13T06:52:03.773Z,7.3
2016-10-13T06:53:03.759Z,7.34
2016-10-13T06:54:03.733Z,7.33
2016-10-13T06:55:03.723Z,7.26
2016-10-13T06:56:03.708Z,7.37
2016-10-13T06:57:03.723Z,7.4
2016-10-13T06:58:03.696Z,7.39
2016-10-13T06:59:03.677Z,7.36
2016-10-13T07:00:03.671Z,7.37
2016-10-13T07:01:03.671Z,7.48
2016-10-13T07:02:03.644Z,7.39
2016-10-13T07:03:03.634Z,7.4
2016-10-13T07:04:03.642Z,7.44
2016-10-13T07:05:03.604Z,7.34
2016-10-13T07:06:03.609Z,7.33
2016-10-13T07:07:03.586Z,7.34
2016-10-13T07:08:03.570Z,7.36
2016-10-13T07:09:03.811Z,7.23
2016-10-13T07:10:03.716Z,7.3
2016-10-13T07:11:03.548Z,7.29
2016-10-13T07:12:03.536Z,7.21
2016-10-13T07:13:03.519Z,7.22
2016-10-13T07:14:03.506Z,7.23
2016-10-13T07:15:03.514Z,7.22
2016-10-13T07:16:03.644Z,7.19
2016-10-13T07:17:03.646Z,7.23
2016-10-13T07:18:03.764Z,7.22
2016-10-13T07:19:03.611Z,7.19
2016-10-13T07:20:03.654Z,7.29
2016-10-13T07:21:03.648Z,7.26
2016-10-13T07:22:03.639Z,7.23
2016-10-13T07:23:03.624Z,7.26
2016-10-13T07:24:03.604Z,7.34
2016-10-13T07:25:03.467Z,7.36
2016-10-13T07:26:03.456Z,7.49
2016-10-13T07:27:03.453Z,7.4
2016-10-13T07:28:03.459Z,7.45
2016-10-13T07:29:03.451Z,7.58
2016-10-13T07:30:03.439Z,7.45
2016-10-13T07:31:03.437Z,7.44
2016-10-13T07:32:03.310Z,7.54
2016-10-13T07:33:03.298Z,7.39
2016-10-13T07:34:03.295Z,7.48
2016-10-13T07:35:03.340Z,7.48
2016-10-13T07:36:03.304Z,7.39
2016-10-13T07:37:03.250Z,7.37
2016-10-13T07:38:03.260Z,7.36
2016-10-13T07:39:03.240Z,7.4
2016-10-13T07:40:03.224Z,7.49
2016-10-13T07:41:03.203Z,7.41
2016-10-13T07:42:03.189Z,7.37
2016-10-13T07:43:03.240Z,7.36
2016-10-13T07:44:03.173Z,7.54
2016-10-13T07:45:03.158Z,7.48
2016-10-13T07:48:03.126Z,7.41
2016-10-13T07:49:03.122Z,7.48
2016-10-13T07:50:03.124Z,7.47
2016-10-13T07:51:03.085Z,7.45
2016-10-13T07:52:03.072Z,7.41
2016-10-13T07:53:03.070Z,7.41
2016-10-13T07:54:03.051Z,7.41
2016-10-13T07:55:03.043Z,7.48
2016-10-13T07:56:03.033Z,7.49
2016-10-13T07:57:03.017Z,7.56
2016-10-13T07:58:03.003Z,7.59
2016-10-13T07:59:02.997Z,7.56
2016-10-13T08:00:02.998Z,7.68
2016-10-13T08:01:02.968Z,7.63
2016-10-13T08:02:02.980Z,7.63
2016-10-13T08:03:02.947Z,7.77
2016-10-13T08:04:02.943Z,7.8
2016-10-13T08:05:02.938Z,7.78
2016-10-13T08:06:02.912Z,7.77
2016-10-13T08:07:02.909Z,7.88
2016-10-13T08:08:02.898Z,7.85
2016-10-13T08:09:02.882Z,7.98
2016-10-13T08:10:02.868Z,7.92
2016-10-13T08:11:02.867Z,7.93
2016-10-13T08:12:02.866Z,7.95
2016-10-13T08:13:02.850Z,7.88
2016-10-13T08:14:02.827Z,7.92
2016-10-13T08:15:02.818Z,8.03
2016-10-13T08:16:02.806Z,7.98
2016-10-13T08:17:02.796Z,8.1
2016-10-13T08:18:02.787Z,8.1
2016-10-13T08:19:02.785Z,8.11
2016-10-13T08:20:02.772Z,8.13
2016-10-13T08:21:02.758Z,8.14
2016-10-13T08:22:02.742Z,7.99
2016-10-13T08:23:02.736Z,8.06
2016-10-13T08:24:02.722Z,7.99
2016-10-13T08:25:02.726Z,7.95
2016-10-13T08:26:02.704Z,7.96
2016-10-13T08:27:02.693Z,8.03
2016-10-13T08:28:02.678Z,7.96
2016-10-13T08:29:02.671Z,7.92
2016-10-13T08:30:02.672Z,7.93
2016-10-13T08:31:02.646Z,7.98
2016-10-13T08:32:02.642Z,7.86
2016-10-13T08:33:02.632Z,7.82
2016-10-13T08:34:02.618Z,7.83
2016-10-13T08:35:02.610Z,7.78
2016-10-13T09:10:46.931Z,7.58
2016-10-13T09:11:46.932Z,7.58
2016-10-13T09:12:46.908Z,7.61
2016-10-13T09:13:46.902Z,7.63
2016-10-13T09:14:46.911Z,7.63
2016-10-13T09:15:46.873Z,7.61
2016-10-13T09:16:46.876Z,7.7
2016-10-13T09:17:46.866Z,7.77
2016-10-13T09:18:46.862Z,7.68
2016-10-13T09:19:46.848Z,7.56
2016-10-13T09:20:46.823Z,7.74
2016-10-13T09:21:46.817Z,7.77
2016-10-13T09:22:46.802Z,7.78
2016-10-13T09:23:46.795Z,7.85
2016-10-13T09:24:46.783Z,7.92
2016-10-13T09:25:46.781Z,7.93
2016-10-13T09:26:46.753Z,8.09
2016-10-13T09:27:46.748Z,8.06
2016-10-13T09:28:46.734Z,8.04
2016-10-13T09:29:46.723Z,8.11
2016-10-13T09:30:46.718Z,8.13
2016-10-13T09:31:46.708Z,8.13
2016-10-13T09:32:46.698Z,8.11
2016-10-13T09:33:46.679Z,8.13
2016-10-13T09:34:46.671Z,8.06
2016-10-13T09:35:46.660Z,8.13
2016-10-13T09:36:46.654Z,8.09
2016-10-13T09:37:46.656Z,8.11
2016-10-13T09:38:46.628Z,8.06
2016-10-13T09:39:46.625Z,8.19
2016-10-13T09:40:46.607Z,8.16
2016-10-13T09:41:46.597Z,8.07
2016-10-13T09:42:46.594Z,8.22
2016-10-13T09:43:46.575Z,8.09
2016-10-13T09:44:46.571Z,8.1
2016-10-13T09:45:46.552Z,8.13
2016-10-13T09:46:46.549Z,8.24
2016-10-13T09:47:46.532Z,8.17
2016-10-13T09:48:46.533Z,8.04
2016-10-13T09:49:46.510Z,8.14
2016-10-13T09:50:46.500Z,8.16
2016-10-13T09:51:46.500Z,8.16
2016-10-13T09:52:46.482Z,8.13
2016-10-13T09:53:46.481Z,8.17
2016-10-13T09:54:46.466Z,8.19
2016-10-13T09:55:46.442Z,8.19
2016-10-13T09:56:46.450Z,8.03
2016-10-13T09:57:46.516Z,8.16
2016-10-13T09:58:46.434Z,8.09
2016-10-13T09:59:46.410Z,8.17
2016-10-13T10:00:46.400Z,8.21
2016-10-13T10:01:46.390Z,8.28
2016-10-13T10:02:46.371Z,8.24
2016-10-13T10:03:46.361Z,8.28
2016-10-13T10:04:46.351Z,8.29
2016-10-13T10:05:46.348Z,8.28
2016-10-13T10:06:46.342Z,8.25
2016-10-13T10:08:46.318Z,8.24
2016-10-13T10:09:46.307Z,8.22
2016-10-13T10:10:46.309Z,8.16
2016-10-13T10:11:46.834Z,8.11
2016-10-13T10:12:46.272Z,8.07
2016-10-13T10:13:46.262Z,8.09
2016-10-13T10:14:46.250Z,7.98
2016-10-13T10:15:46.240Z,8.06
2016-10-13T10:16:46.230Z,8.1
2016-10-13T10:17:46.226Z,8.17
2016-10-13T10:18:46.210Z,8.07
2016-10-13T10:19:46.204Z,8.16
2016-10-13T10:20:46.184Z,8.22
2016-10-13T10:21:46.182Z,8.16
2016-10-13T10:22:46.165Z,8.22
2016-10-13T10:23:46.162Z,8.24
2016-10-13T10:24:46.148Z,8.21
2016-10-13T10:25:46.135Z,8.21
2016-10-13T10:26:46.131Z,8.21
2016-10-13T10:27:46.108Z,8.17
2016-10-13T10:28:46.104Z,8.14
2016-10-13T10:29:46.092Z,8.31
2016-10-13T10:30:46.077Z,8.19
2016-10-13T10:31:46.068Z,8.24
2016-10-13T10:32:46.059Z,8.34
2016-10-13T10:33:46.048Z,8.17
2016-10-13T10:34:46.042Z,8.25
2016-10-13T10:35:46.032Z,8.17
2016-10-13T10:36:46.025Z,8.26
2016-10-13T10:37:46.020Z,8.29
2016-10-13T10:38:45.995Z,8.29
2016-10-13T10:39:45.984Z,8.46
2016-10-13T10:40:45.982Z,8.42
2016-10-13T10:41:45.968Z,8.54
2016-10-13T10:42:45.951Z,8.61
2016-10-13T10:43:45.945Z,8.61
2016-10-13T10:44:45.938Z,8.67
2016-10-13T10:45:45.923Z,8.61
2016-10-13T10:46:45.917Z,8.79
2016-10-13T10:47:45.907Z,8.8
2016-10-13T10:48:45.895Z,9
2016-10-13T10:49:45.887Z,9.03
2016-10-13T10:50:45.877Z,9.05
2016-10-13T10:51:46.065Z,9.16
2016-10-13T10:52:45.860Z,9.19
2016-10-13T10:53:45.856Z,9.37
2016-10-13T10:54:45.832Z,9.27
2016-10-13T10:55:45.821Z,9.29
2016-10-13T10:56:45.827Z,9.34
2016-10-13T10:57:45.803Z,9.34
2016-10-13T10:58:45.809Z,9.17
2016-10-13T10:59:45.787Z,9.21
2016-10-13T11:00:45.773Z,9.2
2016-10-13T11:01:45.764Z,9.21
2016-10-13T11:02:45.761Z,9.19
2016-10-13T11:03:45.747Z,9.19
2016-10-13T11:04:45.748Z,9.14
2016-10-13T11:05:45.726Z,9.03
2016-10-13T11:06:45.720Z,9.05
2016-10-13T11:07:45.722Z,9.11
2016-10-13T11:08:45.702Z,9.2
2016-10-13T11:09:45.689Z,9.21
2016-10-13T11:10:45.687Z,9.23
2016-10-13T11:11:45.667Z,9.19
2016-10-13T11:12:45.660Z,9.32
2016-10-13T11:13:45.644Z,9.29
2016-10-13T11:14:45.645Z,9.37
2016-10-13T11:15:45.630Z,9.35
2016-10-13T11:16:45.630Z,9.3
2016-10-13T11:17:45.608Z,9.42
2016-10-13T11:18:45.597Z,9.48
2016-10-13T11:19:45.612Z,9.5
2016-10-13T11:20:45.580Z,9.57
2016-10-13T11:21:45.572Z,9.6
2016-10-13T11:22:45.579Z,9.62
2016-10-13T11:23:45.551Z,9.75
2016-10-13T11:24:45.549Z,9.81
2016-10-13T11:25:45.587Z,9.89
2016-10-13T11:26:45.524Z,9.92
2016-10-13T11:27:45.518Z,9.92
2016-10-13T11:28:45.508Z,9.93
2016-10-13T11:29:45.505Z,9.92
2016-10-13T11:30:45.495Z,10.03
2016-10-13T11:31:45.482Z,10.03
2016-10-13T11:32:45.471Z,10.02
2016-10-13T11:33:45.472Z,10.07
2016-10-13T11:34:45.460Z,10.1
2016-10-13T11:35:45.453Z,10.02
2016-10-13T11:36:45.434Z,10.13
2016-10-13T11:37:45.436Z,9.95
2016-10-13T11:38:45.429Z,10.02
2016-10-13T11:39:45.413Z,9.99
2016-10-13T11:40:45.402Z,9.99
2016-10-13T11:41:45.395Z,9.98
2016-10-13T11:42:45.390Z,9.96
2016-10-13T11:43:45.380Z,9.82
2016-10-13T11:44:45.728Z,9.82
2016-10-13T11:45:45.360Z,9.75
2016-10-13T11:46:45.353Z,9.74
2016-10-13T11:47:45.657Z,9.71
2016-10-13T11:48:45.342Z,9.59
2016-10-13T11:49:45.326Z,9.52
2016-10-13T11:50:45.318Z,9.48
2016-10-13T11:51:45.305Z,9.52
2016-10-13T11:52:45.295Z,9.37
2016-10-13T11:53:45.285Z,9.38
2016-10-13T11:54:45.290Z,9.37
2016-10-13T11:55:45.268Z,9.3
2016-10-13T11:56:45.263Z,9.45
2016-10-13T11:57:45.253Z,9.41
2016-10-13T11:58:45.240Z,9.48
2016-10-13T11:59:45.238Z,9.45
2016-10-13T12:00:45.227Z,9.47
2016-10-13T12:01:45.209Z,9.48
2016-10-13T12:02:45.204Z,9.45
2016-10-13T12:03:45.210Z,9.3
2016-10-13T12:04:45.214Z,9.26
2016-10-13T12:05:45.174Z,9.19
2016-10-13T12:06:45.169Z,9.29
2016-10-13T12:07:45.165Z,9.35
2016-10-13T12:08:45.148Z,9.3
2016-10-13T12:09:45.146Z,9.35
2016-10-13T12:10:45.131Z,9.3
2016-10-13T12:11:45.127Z,9.45
2016-10-13T12:12:45.120Z,9.34
2016-10-13T12:13:45.101Z,9.27
2016-10-13T12:14:45.100Z,9.27
2016-10-13T12:15:45.087Z,9.19
2016-10-13T12:16:45.088Z,9.23
2016-10-13T12:17:45.078Z,9.21
2016-10-13T12:18:45.057Z,9.12
2016-10-13T12:19:45.050Z,9.19
2016-10-13T12:20:45.035Z,9.17
2016-10-13T12:21:45.027Z,9.05
2016-10-13T12:22:45.028Z,9.12
2016-10-13T12:23:45.005Z,9.05
2016-10-13T12:24:45.001Z,9
2016-10-13T12:25:44.990Z,9.08
2016-10-13T12:26:44.988Z,9.14
2016-10-13T12:27:44.974Z,9.03
2016-10-13T12:28:44.969Z,9.05
2016-10-13T12:29:44.952Z,8.97
2016-10-13T12:30:44.939Z,9
2016-10-13T12:31:44.935Z,8.95
2016-10-13T12:32:44.925Z,8.98
2016-10-13T12:33:44.912Z,8.86
2016-10-13T12:34:44.909Z,9.01
2016-10-13T12:35:44.909Z,9.01
2016-10-13T12:36:44.884Z,8.94
2016-10-13T12:37:44.881Z,8.98
2016-10-13T12:38:44.875Z,8.86
2016-10-13T12:39:45.059Z,8.79
2016-10-13T12:40:44.846Z,8.74
2016-10-13T12:41:44.845Z,8.61
2016-10-13T12:42:44.825Z,8.61
2016-10-13T12:43:44.822Z,8.6
2016-10-13T12:44:44.816Z,8.58
2016-10-13T12:45:44.798Z,8.6
2016-10-13T12:46:44.787Z,8.52
2016-10-13T12:47:44.784Z,8.47
2016-10-13T12:48:44.774Z,8.47
2016-10-13T12:49:44.776Z,8.47
2016-10-13T12:50:44.760Z,8.44
2016-10-13T12:51:44.737Z,8.43
2016-10-13T12:52:44.744Z,8.4
2016-10-13T12:53:44.725Z,8.31
2016-10-13T12:54:44.708Z,8.39
2016-10-13T12:55:44.700Z,8.26
2016-10-13T12:56:44.699Z,8.34
2016-10-13T12:57:44.675Z,8.32
2016-10-13T12:58:44.792Z,8.35
2016-10-13T12:59:44.659Z,8.39
2016-10-13T13:00:44.649Z,8.28
2016-10-13T13:01:44.638Z,8.28
2016-10-13T13:02:44.631Z,8.21
2016-10-13T13:03:44.615Z,8.25
2016-10-13T13:04:44.920Z,8.26
2016-10-13T13:05:44.604Z,8.32
2016-10-13T13:06:44.612Z,8.22
2016-10-13T13:07:44.582Z,8.25
2016-10-13T13:08:44.567Z,8.22
2016-10-13T13:09:44.563Z,8.21
2016-10-13T13:10:44.550Z,8.24
2016-10-13T13:11:44.558Z,8.13
2016-10-13T13:12:44.525Z,8.25
2016-10-13T13:13:44.517Z,8.1
2016-10-13T13:14:44.503Z,8.16
2016-10-13T13:15:44.510Z,8.19
2016-10-13T13:16:44.490Z,8.29
2016-10-13T13:17:44.482Z,8.19
2016-10-13T13:18:44.462Z,8.14
2016-10-13T13:19:44.453Z,8.16
2016-10-13T13:20:44.449Z,8.32
2016-10-13T13:21:44.431Z,8.24
2016-10-13T13:22:44.422Z,8.22
2016-10-13T13:23:44.409Z,8.14
2016-10-13T13:24:44.400Z,8.16
2016-10-13T13:25:44.402Z,8.24
2016-10-13T13:26:44.382Z,8.06
2016-10-13T13:27:44.573Z,8.14
2016-10-13T13:28:44.357Z,8.17
2016-10-13T13:29:44.350Z,8.04
2016-10-13T13:30:44.337Z,8.19
2016-10-13T13:31:44.331Z,8.21
2016-10-13T13:32:44.315Z,8.16
2016-10-13T13:33:44.307Z,8.17
2016-10-13T13:34:44.296Z,8.07
2016-10-13T13:35:44.300Z,8.11
2016-10-13T13:36:44.274Z,8.22
2016-10-13T13:37:44.274Z,8.17
2016-10-13T13:38:44.252Z,8.09
2016-10-13T13:39:44.248Z,8.04
2016-10-13T13:40:44.238Z,8.11
2016-10-13T13:41:44.234Z,8.16
2016-10-13T13:42:44.213Z,8.13
2016-10-13T13:43:44.207Z,8.07
2016-10-13T13:44:44.191Z,8.14
2016-10-13T13:45:44.184Z,8.14
2016-10-13T13:46:44.172Z,8.06
2016-10-13T13:47:44.165Z,8.17
2016-10-13T13:48:44.148Z,8.19
2016-10-13T13:49:44.142Z,8.24
2016-10-13T13:50:44.133Z,8.19
2016-10-13T13:51:44.128Z,8.21
2016-10-13T13:52:44.110Z,8.32
2016-10-13T13:53:44.097Z,8.26
2016-10-13T13:54:44.091Z,8.34
2016-10-13T13:55:44.076Z,8.24
2016-10-13T13:56:44.066Z,8.06
2016-10-13T13:57:44.055Z,8.22
2016-10-13T13:58:44.048Z,8.17